Time;durP1;ratioP1;P1;durP2;ratioP2;P2;SDS_P1;SDS_P2;PMS_P1;PMS_P2;Temp;Humidity;BMP_temperature;BMP_pressure;BME280_temperature;BME280_humidity;BME280_pressure;Samples;Min_cycle;Max_cycle;Signal;HPM_P1;HPM_P2
2021/04/22 00:00:21;;;;;;;16.43;14.83;;;;;;;9.06;64.82;100196.65;1688882;84;21358;-86
2021/04/22 00:02:50;;;;;;;15.97;14.37;;;;;;;9.09;64.89;100187.00;1687815;84;21342;-84
2021/04/22 00:05:28;;;;;;;16.73;14.93;;;;;;;9.16;64.77;100191.40;1687652;84;21674;-85
2021/04/22 00:07:56;;;;;;;15.63;13.87;;;;;;;9.12;64.77;100190.11;1675189;84;21364;-86
2021/04/22 00:10:40;;;;;;;18.97;15.70;;;;;;;9.09;64.92;100190.47;1686799;84;21230;-85
2021/04/22 00:13:09;;;;;;;16.77;14.93;;;;;;;9.06;65.04;100188.67;1684251;84;21081;-86
2021/04/22 00:15:39;;;;;;;16.13;14.60;;;;;;;9.01;65.18;100193.22;1658531;85;21354;-87
2021/04/22 00:18:09;;;;;;;15.37;13.93;;;;;;;9.04;65.20;100190.69;1684884;84;21204;-87
2021/04/22 00:20:36;;;;;;;16.13;14.50;;;;;;;9.11;65.01;100195.09;1687121;84;21348;-87
2021/04/22 00:23:08;;;;;;;17.10;13.57;;;;;;;9.09;65.14;100197.12;1687368;84;21780;-85
2021/04/22 00:25:36;;;;;;;14.90;13.33;;;;;;;9.04;65.22;100196.86;1692239;84;21330;-86
2021/04/22 00:28:05;;;;;;;15.67;14.03;;;;;;;9.00;65.34;100195.55;1691397;84;21215;-86
2021/04/22 00:30:35;;;;;;;15.53;13.83;;;;;;;8.99;65.38;100202.40;1682682;84;21469;-86
2021/04/22 00:33:07;;;;;;;15.33;13.83;;;;;;;8.95;65.60;100198.77;1694128;84;21445;-87
2021/04/22 00:35:36;;;;;;;14.40;12.10;;;;;;;8.96;65.59;100202.23;1686738;84;21362;-86
2021/04/22 00:38:05;;;;;;;15.63;14.00;;;;;;;9.04;65.36;100206.16;1685169;84;21615;-86
2021/04/22 00:40:32;;;;;;;12.93;11.63;;;;;;;9.07;65.35;100203.64;1697473;84;21173;-87
2021/04/22 00:43:03;;;;;;;13.47;12.07;;;;;;;9.04;65.32;100205.31;1686535;84;21151;-86
2021/04/22 00:45:32;;;;;;;15.53;13.20;;;;;;;9.04;65.43;100206.64;1695548;84;21547;-87
2021/04/22 00:47:59;;;;;;;13.63;12.37;;;;;;;8.99;65.48;100211.19;1686982;84;21350;-87
2021/04/22 00:50:32;;;;;;;14.37;12.97;;;;;;;8.95;65.56;100205.92;1686748;84;21179;-86
2021/04/22 00:53:02;;;;;;;14.77;13.27;;;;;;;8.93;65.68;100211.92;1692860;84;21190;-87
2021/04/22 00:55:33;;;;;;;18.57;13.30;;;;;;;8.90;65.74;100209.61;1696171;84;21140;-87
2021/04/22 00:58:03;;;;;;;14.17;12.10;;;;;;;8.94;65.67;100206.91;1689156;84;21661;-86
2021/04/22 01:00:34;;;;;;;16.10;13.57;;;;;;;9.08;65.44;100206.60;1690741;84;21115;-86
2021/04/22 01:03:03;;;;;;;13.53;12.33;;;;;;;9.14;65.36;100216.02;1686196;84;21155;-86
2021/04/22 01:05:37;;;;;;;17.63;13.47;;;;;;;9.13;65.43;100221.00;1690999;84;21346;-87
2021/04/22 01:08:31;;;;;;;16.20;13.77;;;;;;;9.16;65.47;100217.17;1816499;77;23001;-86
2021/04/22 01:11:00;;;;;;;16.47;13.40;;;;;;;9.09;65.45;100223.70;1746832;80;21322;-87
2021/04/22 01:13:27;;;;;;;13.63;12.43;;;;;;;9.03;65.51;100228.42;1744604;80;21628;-87
2021/04/22 01:15:54;;;;;;;14.47;13.10;;;;;;;9.00;65.51;100222.64;1717845;82;21205;-86
2021/04/22 01:18:21;;;;;;;14.57;12.27;;;;;;;8.89;65.74;100227.41;1736968;81;21215;-87
2021/04/22 01:20:52;;;;;;;13.87;12.47;;;;;;;8.88;65.92;100232.38;1716543;81;21346;-86
2021/04/22 01:23:20;;;;;;;14.97;12.67;;;;;;;8.91;65.83;100232.03;1682085;81;21321;-87
2021/04/22 01:25:51;;;;;;;14.17;12.50;;;;;;;8.90;65.91;100236.20;1667050;85;21246;-86
2021/04/22 01:28:23;;;;;;;14.80;13.30;;;;;;;8.84;66.14;100227.62;1678198;83;21184;-87
2021/04/22 01:30:54;;;;;;;14.30;13.10;;;;;;;8.78;66.34;100226.50;1672191;84;21213;-86
2021/04/22 01:33:27;;;;;;;15.40;13.93;;;;;;;8.72;66.47;100228.05;1693760;81;21165;-87
2021/04/22 01:35:58;;;;;;;14.97;13.60;;;;;;;8.64;66.46;100225.44;1641705;86;21282;-86
2021/04/22 01:38:27;;;;;;;15.67;14.07;;;;;;;8.57;66.62;100226.66;1653967;84;21171;-87
2021/04/22 01:41:01;;;;;;;14.57;13.17;;;;;;;8.60;66.60;100227.31;1621365;86;22012;-86
2021/04/22 01:43:29;;;;;;;15.27;13.77;;;;;;;8.68;66.42;100225.91;1666707;83;21194;-86
2021/04/22 01:45:56;;;;;;;15.47;13.87;;;;;;;8.71;66.47;100228.22;1662650;84;21151;-87
2021/04/22 01:48:26;;;;;;;14.93;13.50;;;;;;;8.66;66.58;100222.09;1674227;85;21559;-86
2021/04/22 01:50:54;;;;;;;14.67;13.37;;;;;;;8.64;66.67;100229.93;1667339;84;21500;-85
2021/04/22 01:53:22;;;;;;;14.70;13.33;;;;;;;8.60;66.68;100226.80;1673745;83;21800;-87
2021/04/22 01:55:51;;;;;;;14.47;13.17;;;;;;;8.57;66.83;100227.17;1685827;82;21164;-88
2021/04/22 01:58:24;;;;;;;13.33;12.13;;;;;;;8.52;67.03;100226.87;1646108;86;21350;-86
2021/04/22 02:00:57;;;;;;;15.47;12.23;;;;;;;8.53;67.11;100228.03;1680621;83;21311;-86
2021/04/22 02:03:28;;;;;;;13.17;11.93;;;;;;;8.47;66.82;100206.14;1675918;84;21224;-87
2021/04/22 02:05:57;;;;;;;13.40;12.10;;;;;;;8.66;66.82;100231.39;1657889;84;21240;-87
2021/04/22 02:08:26;;;;;;;15.07;11.50;;;;;;;8.64;66.89;100232.08;1629686;84;21202;-87
2021/04/22 02:10:53;;;;;;;19.63;13.07;;;;;;;8.66;66.95;100223.42;1665515;84;21209;-86
2021/04/22 02:13:22;;;;;;;16.37;12.97;;;;;;;8.66;66.95;100224.75;1629591;86;21140;-85
2021/04/22 02:15:51;;;;;;;13.90;12.57;;;;;;;8.64;66.96;100225.44;1644855;86;21250;-86
2021/04/22 02:18:19;;;;;;;12.97;11.70;;;;;;;8.61;67.05;100223.16;1657154;84;21219;-86
2021/04/22 02:20:49;;;;;;;12.80;11.60;;;;;;;8.63;67.03;100226.45;1641250;85;21883;-85
2021/04/22 02:23:22;;;;;;;13.57;12.17;;;;;;;8.72;66.76;100225.39;1661239;81;21155;-85
2021/04/22 02:25:49;;;;;;;13.17;12.07;;;;;;;8.77;66.72;100224.84;1649736;84;21226;-84
2021/04/22 02:28:17;;;;;;;14.03;12.63;;;;;;;8.74;66.83;100227.36;1649380;85;21244;-86
2021/04/22 02:30:45;;;;;;;15.60;12.70;;;;;;;8.75;66.84;100227.67;1651054;85;21194;-86
2021/04/22 02:33:16;;;;;;;14.23;12.70;;;;;;;8.73;66.83;100232.84;1651856;85;21209;-86
2021/04/22 02:35:46;;;;;;;14.47;12.87;;;;;;;8.71;66.80;100235.68;1674003;84;21199;-85
2021/04/22 02:38:15;;;;;;;18.47;13.63;;;;;;;8.70;66.80;100238.03;1677157;84;21234;-86
2021/04/22 02:40:45;;;;;;;13.27;12.03;;;;;;;8.48;66.80;100204.33;1651638;84;21249;-85
2021/04/22 02:43:18;;;;;;;14.00;12.60;;;;;;;8.73;66.70;100227.02;1667630;84;21187;-87
2021/04/22 02:45:50;;;;;;;13.40;12.07;;;;;;;8.81;66.50;100228.78;1695978;82;21174;-86
2021/04/22 02:48:21;;;;;;;12.93;11.60;;;;;;;8.83;66.47;100228.09;1699865;81;21311;-85
2021/04/22 02:50:52;;;;;;;13.70;12.40;;;;;;;8.81;66.55;100231.44;1711608;82;21207;-88
2021/04/22 02:53:21;;;;;;;13.23;11.63;;;;;;;8.80;66.53;100230.28;1703696;82;21216;-84
2021/04/22 02:55:49;;;;;;;13.60;12.23;;;;;;;8.80;66.42;100230.28;1681881;82;21437;-85
2021/04/22 02:58:21;;;;;;;13.60;12.40;;;;;;;8.79;66.44;100232.64;1679621;84;21723;-86
2021/04/22 03:00:49;;;;;;;14.20;12.80;;;;;;;8.75;66.51;100238.30;1665679;84;21098;-85
2021/04/22 03:03:16;;;;;;;15.03;12.67;;;;;;;8.72;66.56;100235.17;1643875;85;21690;-87
2021/04/22 03:05:44;;;;;;;12.60;11.47;;;;;;;8.74;66.49;100237.99;1669086;84;21264;-88
2021/04/22 03:08:11;;;;;;;13.87;12.47;;;;;;;8.85;66.17;100243.36;1662571;84;21212;-87
2021/04/22 03:12:09;;;;;;;13.60;12.20;;;;;;;8.83;66.05;100241.39;1735979;79;22972;-87
2021/04/22 03:14:36;;;;;;;12.93;11.73;;;;;;;8.69;66.16;100244.34;1663048;85;21176;-87
2021/04/22 03:17:06;;;;;;;13.77;12.37;;;;;;;8.61;66.41;100248.88;1645379;85;21513;-85
2021/04/22 03:19:33;;;;;;;14.60;13.17;;;;;;;8.51;66.57;100246.46;1630902;86;21635;-87
2021/04/22 03:22:00;;;;;;;13.23;12.00;;;;;;;8.48;66.63;100252.96;1614063;87;21180;-87
2021/04/22 03:24:29;;;;;;;13.33;12.13;;;;;;;8.53;66.58;100255.08;1595515;88;21137;-91
2021/04/22 03:26:57;;;;;;;13.17;11.97;;;;;;;8.55;66.54;100259.70;1595080;88;21236;-85
2021/04/22 03:29:24;;;;;;;13.67;12.37;;;;;;;8.50;66.71;100263.42;1596541;88;21261;-86
2021/04/22 03:31:51;;;;;;;14.57;13.07;;;;;;;8.46;66.81;100266.11;1596207;88;21201;-87
2021/04/22 03:34:18;;;;;;;13.53;12.23;;;;;;;8.44;67.01;100270.74;1624140;85;21224;-86
2021/04/22 03:36:46;;;;;;;14.03;11.70;;;;;;;8.44;67.00;100260.97;1664636;83;21164;-86
2021/04/22 03:39:13;;;;;;;13.33;11.93;;;;;;;8.54;66.79;100270.03;1666569;86;21725;-88
2021/04/22 03:41:41;;;;;;;14.83;13.30;;;;;;;8.58;66.67;100265.50;1669461;85;21208;-87
2021/04/22 03:44:08;;;;;;;16.47;13.17;;;;;;;8.68;66.58;100269.75;1664669;84;21181;-87
2021/04/22 03:46:37;;;;;;;15.10;13.47;;;;;;;8.81;66.25;100273.97;1649771;85;21676;-90
2021/04/22 03:49:05;;;;;;;15.20;13.80;;;;;;;8.94;65.82;100272.04;1648886;85;21813;-84
2021/04/22 03:51:34;;;;;;;15.43;12.93;;;;;;;9.03;65.41;100274.14;1658998;85;21344;-93
2021/04/22 03:54:05;;;;;;;13.60;12.20;;;;;;;9.06;65.23;100276.42;1650639;86;21382;-89
2021/04/22 03:56:32;;;;;;;15.03;12.80;;;;;;;9.17;64.78;100286.62;1659920;85;21100;-87
2021/04/22 03:59:01;;;;;;;14.37;12.93;;;;;;;9.39;64.26;100290.24;1654224;85;21205;-89
2021/04/22 04:01:28;;;;;;;14.10;12.73;;;;;;;9.61;63.37;100287.70;1639463;85;21126;-92
2021/04/22 04:03:55;;;;;;;15.20;13.50;;;;;;;9.76;62.93;100281.88;1636601;86;21255;-91
2021/04/22 04:06:25;;;;;;;16.47;13.43;;;;;;;9.99;62.26;100285.75;1626788;87;21299;-91
2021/04/22 04:08:53;;;;;;;13.87;12.57;;;;;;;10.30;61.61;100289.54;1625097;87;21688;-90
2021/04/22 04:11:20;;;;;;;14.00;12.53;;;;;;;10.74;60.36;100285.55;1642823;87;21212;-91
2021/04/22 04:13:51;;;;;;;15.47;13.17;;;;;;;11.15;58.90;100295.56;1644535;86;21328;-82
2021/04/22 04:16:18;;;;;;;13.62;12.43;;;;;;;11.47;57.97;100294.15;1632851;86;22830;-81
2021/04/22 04:18:45;;;;;;;14.17;12.67;;;;;;;11.76;57.03;100298.97;1642054;86;21184;-82
2021/04/22 04:21:12;;;;;;;11.87;10.53;;;;;;;12.05;55.94;100295.23;1644971;86;21394;-82
2021/04/22 04:23:40;;;;;;;12.53;11.35;;;;;;;12.29;55.02;100297.89;1643678;85;21634;-81
2021/04/22 04:26:07;;;;;;;14.18;11.97;;;;;;;12.39;54.47;100302.33;1643524;86;21258;-81
2021/04/22 04:28:34;;;;;;;12.63;11.43;;;;;;;12.44;54.30;100297.22;1644229;86;21257;-81
2021/04/22 04:31:01;;;;;;;12.58;11.43;;;;;;;12.63;54.29;100300.14;1623934;86;21304;-80
2021/04/22 04:33:27;;;;;;;12.43;11.22;;;;;;;12.93;53.43;100305.13;1633605;86;21101;-81
2021/04/22 04:35:54;;;;;;;11.70;10.63;;;;;;;13.27;52.93;100313.99;1617354;87;21710;-81
2021/04/22 04:38:21;;;;;;;13.32;12.13;;;;;;;13.65;51.54;100311.50;1628814;86;21374;-81
2021/04/22 04:40:48;;;;;;;15.20;13.60;;;;;;;13.98;50.29;100314.63;1603659;87;21223;-81
2021/04/22 04:43:15;;;;;;;14.68;13.28;;;;;;;14.16;49.87;100313.92;1614499;88;21256;-80
2021/04/22 04:45:42;;;;;;;12.60;11.35;;;;;;;14.19;49.10;100311.64;1614054;87;21381;-80
2021/04/22 04:48:10;;;;;;;17.42;11.95;;;;;;;13.95;49.78;100321.73;1608884;88;21268;-82
2021/04/22 04:50:37;;;;;;;12.73;11.48;;;;;;;13.38;50.98;100325.45;1608102;88;22224;-81
2021/04/22 04:53:04;;;;;;;15.05;12.35;;;;;;;12.90;52.26;100321.58;1609029;88;21721;-80
2021/04/22 04:55:31;;;;;;;15.83;11.83;;;;;;;12.46;53.25;100328.58;1642375;86;21629;-82
2021/04/22 04:57:58;;;;;;;13.78;12.47;;;;;;;12.29;53.89;100325.95;1642628;86;21674;-81
2021/04/22 05:00:25;;;;;;;13.65;12.25;;;;;;;12.43;54.31;100325.48;1646001;86;21432;-81
2021/04/22 05:02:53;;;;;;;15.20;12.93;;;;;;;12.77;53.74;100325.05;1648945;86;21200;-82
2021/04/22 05:05:20;;;;;;;15.13;12.07;;;;;;;13.19;52.32;100326.55;1644521;86;21656;-83
2021/04/22 05:07:47;;;;;;;14.05;11.90;;;;;;;13.53;51.37;100330.59;1647265;86;21220;-83
2021/04/22 05:10:16;;;;;;;13.68;12.43;;;;;;;13.90;50.94;100322.88;1646471;86;21224;-83
2021/04/22 05:12:45;;;;;;;16.93;11.70;;;;;;;14.17;49.41;100328.98;1659882;85;21573;-80
2021/04/22 05:15:14;;;;;;;13.62;12.33;;;;;;;14.18;49.44;100327.94;1690179;84;21210;-81
2021/04/22 05:17:43;;;;;;;14.05;12.75;;;;;;;13.78;50.17;100339.59;1690344;84;21563;-81
2021/04/22 05:20:12;;;;;;;14.80;12.90;;;;;;;13.23;51.39;100329.11;1657062;86;21240;-81
2021/04/22 05:22:39;;;;;;;14.38;12.88;;;;;;;12.75;52.52;100335.13;1661875;86;21564;-81
2021/04/22 05:25:09;;;;;;;18.60;13.05;;;;;;;12.37;53.62;100331.63;1658353;86;21873;-82
2021/04/22 05:27:37;;;;;;;14.83;13.38;;;;;;;12.10;54.62;100334.72;1623115;88;21245;-81
2021/04/22 05:30:06;;;;;;;17.35;14.33;;;;;;;11.90;55.30;100336.76;1651566;86;22237;-83
2021/04/22 05:32:33;;;;;;;14.33;13.05;;;;;;;11.98;55.51;100335.77;1656508;86;21387;-82
2021/04/22 05:35:00;;;;;;;15.18;13.72;;;;;;;12.29;55.40;100331.82;1620965;85;21244;-81
2021/04/22 05:37:29;;;;;;;15.20;13.58;;;;;;;12.63;54.30;100335.72;1639132;86;21217;-79
2021/04/22 05:39:56;;;;;;;15.53;13.93;;;;;;;12.71;53.54;100333.89;1641599;86;21196;-81
2021/04/22 05:42:23;;;;;;;17.23;15.45;;;;;;;12.51;54.01;100336.50;1639757;86;21192;-79
2021/04/22 05:44:50;;;;;;;19.00;14.05;;;;;;;12.23;54.85;100338.27;1642491;86;21109;-82
2021/04/22 05:47:17;;;;;;;22.10;15.85;;;;;;;11.85;55.81;100342.67;1617575;87;21314;-79
2021/04/22 05:49:44;;;;;;;17.90;15.95;;;;;;;11.60;56.52;100338.31;1651996;86;21206;-80
2021/04/22 05:52:13;;;;;;;20.55;15.98;;;;;;;11.52;57.05;100334.44;1652103;86;21219;-80
2021/04/22 05:54:40;;;;;;;18.07;16.17;;;;;;;11.54;57.17;100335.58;1657519;86;21338;-79
2021/04/22 05:57:10;;;;;;;23.63;15.37;;;;;;;11.53;57.30;100343.27;1657095;84;21120;-79
2021/04/22 05:59:37;;;;;;;18.70;15.77;;;;;;;11.41;57.43;100341.13;1654879;86;21207;-80
2021/04/22 06:02:04;;;;;;;19.53;16.90;;;;;;;11.35;57.68;100343.24;1650238;86;21182;-82
2021/04/22 06:04:31;;;;;;;28.27;17.75;;;;;;;11.12;57.96;100311.45;1649463;86;21342;-81
2021/04/22 06:06:58;;;;;;;26.63;19.60;;;;;;;11.37;57.97;100341.20;1655646;86;21257;-81
2021/04/22 06:09:25;;;;;;;19.47;17.50;;;;;;;11.48;57.73;100339.86;1649818;86;21189;-82
2021/04/22 06:11:54;;;;;;;24.03;17.97;;;;;;;11.63;57.14;100338.42;1650191;86;21152;-81
2021/04/22 06:14:20;;;;;;;28.35;16.82;;;;;;;11.95;57.04;100343.67;1655756;86;21178;-83
2021/04/22 06:16:48;;;;;;;21.50;17.23;;;;;;;12.15;55.49;100309.55;1630143;86;21220;-81
2021/04/22 06:19:15;;;;;;;31.40;15.67;;;;;;;12.54;54.74;100343.61;1641887;86;21368;-83
2021/04/22 06:21:43;;;;;;;16.85;14.23;;;;;;;12.67;54.45;100349.52;1647712;86;21340;-81
2021/04/22 06:24:11;;;;;;;16.17;14.45;;;;;;;12.59;54.47;100343.84;1618827;87;21546;-81
2021/04/22 06:26:38;;;;;;;23.00;14.98;;;;;;;12.60;54.52;100342.83;1616112;88;21212;-80
2021/04/22 06:29:05;;;;;;;17.60;12.73;;;;;;;12.68;54.19;100343.64;1617177;87;21186;-82
2021/04/22 06:31:32;;;;;;;22.22;15.05;;;;;;;12.88;53.78;100339.69;1626281;87;21696;-82
2021/04/22 06:33:59;;;;;;;18.77;13.80;;;;;;;13.18;53.20;100346.30;1617188;88;21087;-81
2021/04/22 06:36:27;;;;;;;16.73;13.40;;;;;;;13.38;52.53;100344.19;1616219;88;21165;-80
2021/04/22 06:38:54;;;;;;;18.85;12.80;;;;;;;13.33;52.15;100341.30;1615967;88;21221;-83
2021/04/22 06:41:22;;;;;;;18.85;13.00;;;;;;;13.22;52.05;100345.37;1613054;88;21966;-82
2021/04/22 06:43:49;;;;;;;21.52;12.40;;;;;;;13.09;52.61;100344.03;1616528;88;21410;-82
2021/04/22 06:46:16;;;;;;;19.35;13.53;;;;;;;13.01;53.15;100345.87;1610708;87;21258;-83
2021/04/22 06:48:45;;;;;;;15.93;12.80;;;;;;;12.96;53.13;100345.68;1603839;88;21402;-83
2021/04/22 06:51:12;;;;;;;17.27;12.80;;;;;;;12.93;53.48;100347.94;1598810;87;21674;-82
2021/04/22 06:53:42;;;;;;;18.92;13.35;;;;;;;12.92;53.49;100348.45;1615860;88;21205;-83
2021/04/22 06:56:11;;;;;;;16.57;11.48;;;;;;;12.92;53.03;100347.12;1636660;86;21071;-82
2021/04/22 06:58:38;;;;;;;13.45;12.03;;;;;;;12.92;53.09;100354.30;1658664;86;21170;-87
2021/04/22 07:01:05;;;;;;;15.60;12.33;;;;;;;13.04;52.90;100353.50;1660860;86;21125;-82
2021/04/22 07:03:32;;;;;;;16.25;12.88;;;;;;;13.17;52.50;100349.20;1653386;86;21370;-83
2021/04/22 07:05:59;;;;;;;30.80;13.10;;;;;;;13.21;52.17;100350.44;1658782;85;21226;-82
2021/04/22 07:08:28;;;;;;;16.37;12.70;;;;;;;13.18;52.31;100352.17;1643215;86;22224;-81
2021/04/22 07:10:55;;;;;;;16.42;10.80;;;;;;;13.15;52.66;100356.09;1658094;86;21707;-83
2021/04/22 07:13:22;;;;;;;16.17;11.70;;;;;;;13.17;52.31;100361.25;1659041;85;21130;-82
2021/04/22 07:15:49;;;;;;;12.60;11.20;;;;;;;13.22;52.32;100368.97;1659842;85;21216;-84
2021/04/22 07:18:17;;;;;;;15.70;11.35;;;;;;;13.34;52.20;100365.19;1657357;86;21209;-84
2021/04/22 07:20:46;;;;;;;20.35;12.75;;;;;;;13.44;52.05;100362.91;1659633;86;21354;-83
2021/04/22 07:23:14;;;;;;;14.93;11.95;;;;;;;13.50;51.88;100355.09;1635266;86;22292;-83
2021/04/22 07:25:42;;;;;;;12.68;10.15;;;;;;;13.56;52.28;100356.44;1614638;88;21852;-83
2021/04/22 07:28:10;;;;;;;15.60;10.98;;;;;;;13.65;51.22;100348.99;1647177;86;21407;-84
2021/04/22 07:30:39;;;;;;;13.43;10.08;;;;;;;13.75;51.30;100360.61;1648712;86;21192;-83
2021/04/22 07:33:07;;;;;;;15.70;10.65;;;;;;;13.80;50.71;100354.94;1662580;85;21207;-84
2021/04/22 07:35:38;;;;;;;11.18;9.98;;;;;;;13.80;50.82;100348.77;1638220;86;21757;-82
2021/04/22 07:38:12;;;;;;;17.73;10.50;;;;;;;13.78;50.51;100362.36;1607257;88;21208;-83
2021/04/22 07:40:41;;;;;;;12.45;10.45;;;;;;;13.77;50.75;100345.19;1644090;86;21256;-83
2021/04/22 07:43:10;;;;;;;10.68;9.50;;;;;;;13.81;50.42;100340.52;1634776;86;21483;-85
2021/04/22 07:45:41;;;;;;;13.00;9.40;;;;;;;13.98;50.08;100343.58;1635135;86;21093;-85
2021/04/22 07:48:09;;;;;;;12.68;9.60;;;;;;;14.21;49.76;100340.92;1671777;85;21477;-84
2021/04/22 07:50:42;;;;;;;11.55;8.85;;;;;;;14.40;48.80;100339.19;1668715;86;21311;-84
2021/04/22 07:53:09;;;;;;;13.53;9.25;;;;;;;13.75;48.94;100208.77;1649149;86;21343;-85
2021/04/22 07:55:46;;;;;;;15.18;9.10;;;;;;;14.81;48.63;100336.63;1634592;86;21053;-86
2021/04/22 07:58:15;;;;;;;10.98;8.83;;;;;;;14.96;47.70;100335.80;1647843;86;21642;-85
2021/04/22 08:00:46;;;;;;;10.35;9.18;;;;;;;14.99;47.46;100327.33;1662740;85;21232;-88
2021/04/22 08:03:17;;;;;;;10.98;7.87;;;;;;;15.05;47.33;100328.32;1664720;86;22575;-84
2021/04/22 08:05:47;;;;;;;9.50;7.90;;;;;;;15.11;47.35;100336.02;1672364;85;21220;-88
2021/04/22 08:08:15;;;;;;;9.55;7.75;;;;;;;15.18;47.56;100323.34;1672380;85;21409;-87
2021/04/22 08:10:45;;;;;;;10.38;8.03;;;;;;;15.28;46.84;100328.24;1673096;85;21210;-86
2021/04/22 08:13:15;;;;;;;11.85;7.47;;;;;;;15.37;46.77;100329.09;1642214;86;21246;-87
2021/04/22 08:15:48;;;;;;;7.53;6.85;;;;;;;15.51;46.52;100331.65;1644516;86;21262;-86
2021/04/22 08:18:17;;;;;;;8.48;7.22;;;;;;;15.65;45.82;100322.93;1640787;86;21887;-86
2021/04/22 08:20:46;;;;;;;6.25;5.85;;;;;;;15.80;45.94;100323.95;1638648;87;21239;-85
2021/04/22 08:23:15;;;;;;;5.95;5.47;;;;;;;15.93;44.36;100324.62;1657614;86;21105;-85
2021/04/22 08:25:51;;;;;;;5.33;4.92;;;;;;;16.01;43.91;100326.21;1665539;86;21243;-86
2021/04/22 08:28:21;;;;;;;5.72;4.87;;;;;;;16.05;44.20;100316.64;1657984;86;22041;-86
2021/04/22 08:30:55;;;;;;;5.97;4.60;;;;;;;16.15;43.40;100319.61;1664257;85;21204;-87
2021/04/22 08:33:26;;;;;;;6.95;5.08;;;;;;;16.25;42.70;100316.38;1634819;86;21192;-80
2021/04/22 08:35:53;;;;;;;4.37;4.10;;;;;;;16.31;42.05;100313.31;1644416;86;21196;-84
2021/04/22 08:38:20;;;;;;;5.37;4.58;;;;;;;16.37;42.41;100308.89;1672084;85;21319;-86
2021/04/22 08:40:49;;;;;;;5.55;5.12;;;;;;;16.46;41.90;100312.91;1670383;86;21778;-84
2021/04/22 08:43:17;;;;;;;5.58;5.05;;;;;;;16.54;41.89;100304.55;1639714;86;21180;-85
2021/04/22 08:45:45;;;;;;;4.67;4.28;;;;;;;16.62;41.45;100303.39;1679946;85;21026;-83
2021/04/22 08:48:13;;;;;;;6.83;4.97;;;;;;;16.73;41.11;100309.34;1669704;86;21157;-86
2021/04/22 08:50:43;;;;;;;5.10;4.65;;;;;;;16.87;41.25;100314.83;1649984;86;21240;-84
2021/04/22 08:53:19;;;;;;;4.42;3.98;;;;;;;17.05;40.82;100313.13;1674668;85;21181;-87
2021/04/22 08:55:47;;;;;;;4.42;3.90;;;;;;;17.20;39.73;100302.73;1639350;86;21279;-83
2021/04/22 08:58:14;;;;;;;5.85;3.85;;;;;;;17.47;38.78;100307.66;1688698;83;21192;-84
2021/04/22 09:00:49;;;;;;;4.12;3.72;;;;;;;17.47;38.78;100307.66;1667787;84;21599;-84
2021/04/22 09:03:18;;;;;;;4.92;3.92;;;;;;;17.61;37.94;100307.72;1659815;85;21217;-83
2021/04/22 09:05:47;;;;;;;6.70;4.03;;;;;;;17.61;37.94;100307.72;1658723;85;21197;-84
2021/04/22 09:08:14;;;;;;;7.22;4.05;;;;;;;17.54;38.68;100307.02;1666878;84;21381;-85
2021/04/22 09:10:42;;;;;;;6.00;4.72;;;;;;;17.44;39.02;100298.17;1660969;85;21371;-84
2021/04/22 09:13:15;;;;;;;7.55;4.47;;;;;;;17.45;39.60;100311.11;1662803;85;21150;-85
2021/04/22 09:15:48;;;;;;;4.95;4.55;;;;;;;17.52;40.12;100301.04;1627265;86;21359;-83
2021/04/22 09:18:19;;;;;;;7.87;6.10;;;;;;;17.57;39.89;100301.67;1653439;85;21216;-82
2021/04/22 09:20:50;;;;;;;6.10;5.58;;;;;;;17.52;39.50;100294.30;1628781;86;21193;-86
2021/04/22 09:23:28;;;;;;;5.65;5.25;;;;;;;17.52;39.50;100294.30;1622251;87;21244;-85
2021/04/22 09:26:07;;;;;;;6.33;4.83;;;;;;;17.43;39.82;100297.87;1596957;88;21772;-80
2021/04/22 09:28:37;;;;;;;3.90;3.60;;;;;;;17.42;40.29;100292.71;1653442;86;21210;-84
2021/04/22 09:31:07;;;;;;;7.87;3.98;;;;;;;17.68;38.75;100277.92;1654479;86;21601;-86
2021/04/22 09:33:37;;;;;;;6.95;2.98;;;;;;;17.77;37.45;100283.78;1654811;86;21113;-80
2021/04/22 09:36:13;;;;;;;2.75;2.55;;;;;;;17.77;37.45;100283.78;1652029;86;21153;-80
2021/04/22 09:38:45;;;;;;;3.47;3.27;;;;;;;17.81;37.42;100287.10;1625321;88;21182;-82
2021/04/22 09:41:16;;;;;;;3.67;3.37;;;;;;;17.75;37.42;100277.28;1653822;86;21170;-83
2021/04/22 09:43:44;;;;;;;3.00;2.75;;;;;;;17.64;36.54;100278.92;1656569;86;21378;-82
2021/04/22 09:46:22;;;;;;;2.50;2.37;;;;;;;17.64;36.54;100278.92;1641119;85;22114;-80
2021/04/22 09:48:49;;;;;;;5.08;3.10;;;;;;;17.68;36.97;100280.09;1614449;88;21347;-82
2021/04/22 09:51:30;;;;;;;2.90;2.67;;;;;;;17.75;37.57;100277.28;1612418;87;21270;-80
2021/04/22 09:54:15;;;;;;;2.92;2.70;;;;;;;17.75;37.57;100277.28;1613106;87;21633;-86
2021/04/22 09:56:52;;;;;;;3.27;2.98;;;;;;;17.74;37.36;100282.36;1633423;86;21113;-88
2021/04/22 09:59:24;;;;;;;3.55;2.70;;;;;;;17.61;37.50;100267.29;1657641;86;21181;-85
2021/04/22 10:02:02;;;;;;;3.15;2.92;;;;;;;17.55;37.84;100266.05;1657981;85;21645;-85
2021/04/22 10:04:37;;;;;;;3.37;2.80;;;;;;;17.56;38.59;100266.36;1657164;86;21191;-82
2021/04/22 10:07:26;;;;;;;3.75;2.40;;;;;;;17.68;36.16;100265.80;1649067;86;21219;-80
2021/04/22 10:09:58;;;;;;;2.87;2.50;;;;;;;17.68;36.16;100265.80;1659320;86;21311;-79
2021/04/22 10:12:33;;;;;;;3.40;3.17;;;;;;;17.61;36.48;100266.45;1654846;86;21181;-81
2021/04/22 10:15:20;;;;;;;3.77;3.42;;;;;;;17.39;41.81;100272.99;1656404;86;21231;-86
2021/04/22 10:17:58;;;;;;;6.85;3.60;;;;;;;17.39;41.81;100272.99;1660180;86;21170;-85
2021/04/22 10:20:29;;;;;;;6.20;3.70;;;;;;;17.13;42.82;100271.04;1654932;86;21619;-86
2021/04/22 10:22:59;;;;;;;5.72;4.45;;;;;;;16.87;43.54;100266.38;1652746;85;21546;-85
2021/04/22 10:25:33;;;;;;;6.28;4.53;;;;;;;16.67;44.07;100264.48;1660361;86;21215;-85
2021/04/22 10:28:19;;;;;;;4.40;3.95;;;;;;;16.53;45.46;100268.72;1662200;86;21591;-86
2021/04/22 10:30:49;;;;;;;4.17;3.92;;;;;;;16.40;45.31;100262.19;1659448;86;21181;-84
2021/04/22 10:33:19;;;;;;;4.55;3.98;;;;;;;16.27;49.80;100272.59;1656750;86;21820;-84
2021/04/22 10:35:47;;;;;;;4.25;3.87;;;;;;;16.08;48.15;100271.81;1640190;86;21190;-85
2021/04/22 10:38:18;;;;;;;3.00;2.75;;;;;;;15.92;44.39;100271.11;1662578;86;21184;-85
2021/04/22 10:40:51;;;;;;;5.12;3.70;;;;;;;15.90;43.58;100274.02;1659650;86;21330;-86
2021/04/22 10:43:27;;;;;;;5.25;3.72;;;;;;;15.88;44.59;100273.92;1657399;86;21255;-84
2021/04/22 10:45:58;;;;;;;5.35;4.42;;;;;;;15.86;44.74;100294.83;1657649;85;21097;-82
2021/04/22 10:48:26;;;;;;;4.25;3.95;;;;;;;15.80;45.57;100293.05;1662957;86;21679;-86
2021/04/22 10:50:54;;;;;;;6.55;5.12;;;;;;;15.70;47.53;100305.09;1647861;87;21178;-86
2021/04/22 10:53:25;;;;;;;6.67;5.00;;;;;;;15.58;48.89;100310.92;1641756;87;21233;-86
2021/04/22 10:55:56;;;;;;;6.37;4.92;;;;;;;15.42;49.75;100306.92;1629206;87;21259;-85
2021/04/22 10:58:32;;;;;;;6.42;4.15;;;;;;;15.32;49.32;100306.09;1660244;85;21201;-85
2021/04/22 11:01:09;;;;;;;4.50;4.10;;;;;;;15.32;47.92;100292.66;1652531;85;21124;-85
2021/04/22 11:03:48;;;;;;;9.28;4.60;;;;;;;15.38;47.82;100290.43;1646029;85;21261;-87
2021/04/22 11:06:20;;;;;;;11.55;5.65;;;;;;;15.37;48.00;100288.80;1637103;86;21703;-86
2021/04/22 11:08:52;;;;;;;5.95;4.62;;;;;;;15.36;48.29;100288.48;1651860;86;21206;-85
2021/04/22 11:11:27;;;;;;;5.17;4.12;;;;;;;15.37;48.09;100294.70;1655858;85;21358;-88
2021/04/22 11:14:14;;;;;;;6.00;3.83;;;;;;;15.26;48.54;100292.21;1653613;85;21200;-85
2021/04/22 11:16:53;;;;;;;3.92;3.33;;;;;;;15.15;49.02;100297.77;1657114;85;21699;-86
2021/04/22 11:19:40;;;;;;;5.75;4.10;;;;;;;14.99;51.32;100289.75;1658893;85;21347;-86
2021/04/22 11:22:16;;;;;;;3.80;3.50;;;;;;;14.83;52.19;100286.25;1626064;86;21157;-86
2021/04/22 11:24:57;;;;;;;4.60;3.95;;;;;;;14.75;53.33;100284.66;1656798;85;21189;-85
2021/04/22 11:27:30;;;;;;;5.75;5.05;;;;;;;14.76;53.10;100277.42;1632640;86;21615;-87
2021/04/22 11:30:07;;;;;;;9.43;4.60;;;;;;;14.84;53.74;100276.33;1658076;85;21638;-84